createdAt,value
2018-05-17T00:01:18.555Z,12.17
2018-05-17T00:03:47.272Z,11.20
2018-05-17T00:06:15.412Z,11.83
2018-05-17T00:08:43.553Z,12.53
2018-05-17T00:11:11.688Z,12.33
2018-05-17T00:13:39.819Z,12.25
2018-05-17T00:16:08.040Z,12.70
2018-05-17T00:18:36.158Z,14.53
2018-05-17T00:21:04.295Z,13.10
2018-05-17T00:23:32.421Z,14.07
2018-05-17T00:26:00.555Z,11.00
2018-05-17T00:28:28.675Z,8.93
2018-05-17T00:30:56.802Z,12.73
2018-05-17T00:33:24.927Z,9.38
2018-05-17T00:35:53.045Z,8.70
2018-05-17T00:38:21.167Z,8.00
2018-05-17T00:40:49.292Z,7.90
2018-05-17T00:43:17.407Z,8.13
2018-05-17T00:45:45.543Z,7.23
2018-05-17T00:48:13.677Z,8.73
2018-05-17T00:50:41.787Z,8.07
2018-05-17T00:53:32.933Z,7.80
2018-05-17T00:56:01.043Z,8.83
2018-05-17T00:58:29.163Z,8.13
2018-05-17T01:00:57.287Z,9.03
2018-05-17T01:03:25.397Z,9.63
2018-05-17T01:05:53.524Z,8.90
2018-05-17T01:08:21.644Z,8.90
2018-05-17T01:10:49.780Z,10.60
2018-05-17T01:13:17.886Z,8.73
2018-05-17T01:15:46.021Z,9.70
2018-05-17T01:18:14.134Z,9.50
2018-05-17T01:20:42.256Z,10.53
2018-05-17T01:23:10.389Z,9.67
2018-05-17T01:25:38.507Z,11.03
2018-05-17T01:28:06.631Z,11.37
2018-05-17T01:30:34.761Z,9.53
2018-05-17T01:33:02.881Z,13.23
2018-05-17T01:35:30.992Z,10.20
2018-05-17T01:38:10.999Z,10.43
2018-05-17T01:40:39.140Z,11.00
2018-05-17T01:43:07.285Z,10.37
2018-05-17T01:45:35.439Z,10.97
2018-05-17T01:48:03.569Z,11.07
2018-05-17T01:50:31.696Z,12.67
2018-05-17T01:52:59.823Z,9.67
2018-05-17T01:55:27.952Z,10.27
2018-05-17T01:57:56.105Z,9.27
2018-05-17T02:00:24.271Z,9.90
2018-05-17T02:02:52.404Z,11.00
2018-05-17T02:05:20.529Z,9.60
2018-05-17T02:07:48.692Z,10.50
2018-05-17T02:10:16.797Z,10.27
2018-05-17T02:12:44.916Z,9.93
2018-05-17T02:15:13.043Z,11.33
2018-05-17T02:17:41.172Z,10.43
2018-05-17T02:20:09.290Z,10.83
2018-05-17T02:22:37.413Z,10.93
2018-05-17T02:25:05.636Z,11.30
2018-05-17T02:27:33.778Z,11.27
2018-05-17T02:30:01.920Z,11.50
2018-05-17T02:32:33.883Z,11.57
2018-05-17T02:35:02.008Z,11.70
2018-05-17T02:37:30.142Z,11.87
2018-05-17T02:39:58.423Z,12.77
2018-05-17T02:42:26.442Z,12.50
2018-05-17T02:44:54.570Z,12.60
2018-05-17T02:47:22.766Z,12.02
2018-05-17T02:49:50.830Z,13.33
2018-05-17T02:52:18.971Z,12.68
2018-05-17T02:54:47.091Z,12.83
2018-05-17T02:57:15.235Z,11.70
2018-05-17T02:59:43.372Z,13.77
2018-05-17T03:02:11.486Z,13.80
2018-05-17T03:04:39.634Z,15.00
2018-05-17T03:07:07.776Z,15.05
2018-05-17T03:09:35.907Z,16.13
2018-05-17T03:12:04.044Z,17.00
2018-05-17T03:14:32.173Z,16.53
2018-05-17T03:17:00.324Z,16.13
2018-05-17T03:19:28.440Z,16.53
2018-05-17T03:21:56.572Z,15.87
2018-05-17T03:24:24.714Z,14.40
2018-05-17T03:26:52.876Z,15.63
2018-05-17T03:29:21.003Z,17.33
2018-05-17T03:31:49.143Z,16.50
2018-05-17T03:34:17.267Z,19.73
2018-05-17T03:36:45.408Z,18.60
2018-05-17T03:39:13.544Z,16.13
2018-05-17T03:41:41.669Z,18.97
2018-05-17T03:44:09.818Z,26.30
2018-05-17T03:46:37.948Z,25.90
2018-05-17T03:49:06.155Z,24.77
2018-05-17T03:51:34.473Z,27.80
2018-05-17T03:54:02.622Z,28.33
2018-05-17T03:56:30.746Z,28.90
2018-05-17T03:58:58.915Z,29.10
2018-05-17T04:01:38.731Z,31.37
2018-05-17T04:04:18.707Z,30.17
2018-05-17T04:06:46.855Z,31.97
2018-05-17T04:09:15.006Z,31.15
2018-05-17T04:11:43.127Z,33.90
2018-05-17T04:14:11.254Z,29.13
2018-05-17T04:16:39.388Z,30.10
2018-05-17T04:19:07.529Z,26.97
2018-05-17T04:21:35.666Z,31.90
2018-05-17T04:24:03.886Z,29.13
2018-05-17T04:26:31.957Z,32.60
2018-05-17T04:29:00.117Z,27.77
2018-05-17T04:31:28.253Z,30.00
2018-05-17T04:33:56.402Z,25.93
2018-05-17T04:36:24.538Z,32.20
2018-05-17T04:38:52.666Z,31.90
2018-05-17T04:41:20.828Z,29.63
2018-05-17T04:43:48.960Z,26.80
2018-05-17T04:46:17.089Z,22.33
2018-05-17T04:48:45.207Z,21.63
2018-05-17T04:51:13.356Z,20.73
2018-05-17T04:53:41.510Z,28.57
2018-05-17T04:56:09.636Z,22.93
2018-05-17T04:58:37.766Z,17.30
2018-05-17T05:01:05.925Z,20.23
2018-05-17T05:03:34.059Z,20.73
2018-05-17T05:06:02.190Z,18.20
2018-05-17T05:08:30.457Z,17.53
2018-05-17T05:10:58.583Z,18.33
2018-05-17T05:13:26.727Z,28.30
2018-05-17T05:15:54.867Z,16.20
2018-05-17T05:18:23.005Z,15.53
2018-05-17T05:20:51.160Z,19.60
2018-05-17T05:23:19.293Z,16.40
2018-05-17T05:25:47.424Z,16.53
2018-05-17T05:28:15.551Z,23.60
2018-05-17T05:30:43.679Z,18.33
2018-05-17T05:33:11.816Z,15.02
2018-05-17T05:35:39.951Z,14.90
2018-05-17T05:38:08.081Z,21.83
2018-05-17T05:40:36.218Z,15.47
2018-05-17T05:43:04.346Z,13.97
2018-05-17T05:45:32.499Z,13.70
2018-05-17T05:48:00.621Z,15.77
2018-05-17T05:50:28.756Z,15.17
2018-05-17T05:52:56.892Z,15.17
2018-05-17T05:55:25.052Z,17.10
2018-05-17T05:57:53.159Z,16.00
2018-05-17T06:00:22.020Z,14.30
2018-05-17T06:02:50.136Z,16.80
2018-05-17T06:05:18.271Z,19.00
2018-05-17T06:07:46.398Z,14.90
2018-05-17T06:10:14.542Z,18.57
2018-05-17T06:12:42.694Z,16.63
2018-05-17T06:15:10.808Z,17.60
2018-05-17T06:17:38.951Z,17.97
2018-05-17T06:20:07.088Z,16.80
2018-05-17T06:22:35.217Z,19.90
2018-05-17T06:25:03.363Z,18.10
2018-05-17T06:27:31.490Z,17.83
2018-05-17T06:29:59.638Z,19.93
2018-05-17T06:32:27.772Z,18.33
2018-05-17T06:34:55.902Z,18.40
2018-05-17T06:37:24.037Z,18.67
2018-05-17T06:39:52.172Z,21.20
2018-05-17T06:42:20.724Z,17.23
2018-05-17T06:44:48.857Z,17.30
2018-05-17T06:47:16.987Z,17.90
2018-05-17T06:49:45.118Z,17.83
2018-05-17T06:52:13.267Z,16.40
2018-05-17T06:54:41.430Z,21.63
2018-05-17T06:57:10.340Z,16.20
2018-05-17T06:59:38.470Z,16.40
2018-05-17T07:02:06.600Z,22.97
2018-05-17T07:04:34.743Z,16.40
2018-05-17T07:07:02.866Z,16.10
2018-05-17T07:09:31.005Z,14.53
2018-05-17T07:11:59.138Z,16.37
2018-05-17T07:14:27.274Z,16.10
2018-05-17T07:16:55.407Z,16.60
2018-05-17T07:19:23.543Z,17.98
2018-05-17T07:21:51.677Z,16.87
2018-05-17T07:24:19.799Z,14.27
2018-05-17T07:26:47.943Z,15.63
2018-05-17T07:29:16.073Z,13.90
2018-05-17T07:31:44.205Z,14.87
2018-05-17T07:34:12.345Z,14.10
2018-05-17T07:36:40.488Z,13.40
2018-05-17T07:39:08.702Z,12.68
2018-05-17T07:41:36.776Z,14.43
2018-05-17T07:44:04.919Z,14.98
2018-05-17T07:46:33.064Z,12.77
2018-05-17T07:49:01.207Z,13.95
2018-05-17T07:51:29.341Z,14.47
2018-05-17T07:53:57.473Z,14.43
2018-05-17T07:56:25.624Z,11.80
2018-05-17T07:58:53.741Z,13.47
2018-05-17T08:01:21.887Z,13.50
2018-05-17T08:03:50.027Z,17.57
2018-05-17T08:06:18.182Z,15.43
2018-05-17T08:08:46.311Z,19.10
2018-05-17T08:11:14.472Z,15.55
2018-05-17T08:13:42.577Z,17.67
2018-05-17T08:16:10.730Z,14.20
2018-05-17T08:18:38.861Z,14.00
2018-05-17T08:21:07.008Z,15.77
2018-05-17T08:23:35.138Z,13.70
2018-05-17T08:26:03.277Z,13.43
2018-05-17T08:28:31.407Z,17.23
2018-05-17T08:30:59.540Z,12.40
2018-05-17T08:33:27.679Z,14.50
2018-05-17T08:35:55.826Z,12.77
2018-05-17T08:38:23.952Z,13.33
2018-05-17T08:40:52.099Z,13.50
2018-05-17T08:43:20.248Z,11.55
2018-05-17T08:45:48.384Z,14.47
2018-05-17T08:48:16.509Z,10.27
2018-05-17T08:50:44.652Z,13.03
2018-05-17T08:53:12.771Z,10.82
2018-05-17T08:55:40.909Z,11.90
2018-05-17T08:58:09.028Z,12.70
2018-05-17T09:00:37.166Z,17.60
2018-05-17T09:03:05.307Z,13.27
2018-05-17T09:05:33.446Z,11.77
2018-05-17T09:08:01.568Z,10.23
2018-05-17T09:10:29.708Z,10.60
2018-05-17T09:12:57.836Z,10.00
2018-05-17T09:15:25.959Z,14.70
2018-05-17T09:17:54.131Z,10.90
2018-05-17T09:20:22.277Z,15.87
2018-05-17T09:22:50.393Z,11.90
2018-05-17T09:25:18.566Z,13.30
2018-05-17T09:27:46.690Z,12.87
2018-05-17T09:30:15.214Z,13.33
2018-05-17T09:32:43.460Z,14.30
2018-05-17T09:35:11.583Z,16.47
2018-05-17T09:37:39.714Z,17.10
2018-05-17T09:40:07.848Z,17.20
2018-05-17T09:42:35.975Z,20.57
2018-05-17T09:45:04.094Z,19.23
2018-05-17T09:47:32.234Z,21.10
2018-05-17T09:50:00.441Z,21.97
2018-05-17T09:52:28.486Z,24.63
2018-05-17T09:54:56.647Z,20.48
2018-05-17T09:57:24.762Z,21.12
2018-05-17T09:59:52.886Z,21.70
2018-05-17T10:02:21.032Z,24.33
2018-05-17T10:04:49.167Z,20.47
2018-05-17T10:07:17.559Z,21.83
2018-05-17T10:09:45.698Z,20.80
2018-05-17T10:12:13.825Z,21.97
2018-05-17T10:14:42.025Z,20.50
2018-05-17T10:17:10.804Z,20.42
2018-05-17T10:19:38.950Z,21.63
2018-05-17T10:22:07.103Z,20.80
2018-05-17T10:24:35.272Z,20.47
2018-05-17T10:27:03.397Z,20.13
2018-05-17T10:29:31.576Z,20.27
2018-05-17T10:31:59.660Z,18.63
2018-05-17T10:34:27.827Z,19.20
2018-05-17T10:36:55.960Z,22.20
2018-05-17T10:39:24.094Z,21.20
2018-05-17T10:41:52.238Z,20.70
2018-05-17T10:44:20.374Z,21.20
2018-05-17T10:46:48.520Z,27.73
2018-05-17T10:49:16.647Z,22.83
2018-05-17T10:51:44.775Z,22.23
2018-05-17T10:54:12.897Z,23.00
2018-05-17T10:56:41.043Z,22.13
2018-05-17T10:59:09.165Z,23.63
2018-05-17T11:01:37.292Z,22.83
2018-05-17T11:04:05.427Z,23.63
2018-05-17T11:06:33.550Z,24.50
2018-05-17T11:09:01.702Z,24.90
2018-05-17T11:11:29.835Z,23.00
2018-05-17T11:13:57.971Z,22.13
2018-05-17T11:16:26.095Z,23.47
2018-05-17T11:18:54.237Z,31.13
2018-05-17T11:21:22.408Z,24.35
2018-05-17T11:23:50.543Z,27.20
2018-05-17T11:26:18.684Z,27.37
2018-05-17T11:28:46.822Z,29.80
2018-05-17T11:31:14.983Z,24.45
2018-05-17T11:33:43.124Z,25.97
2018-05-17T11:36:11.251Z,27.27
2018-05-17T11:38:39.374Z,29.77
2018-05-17T11:41:07.557Z,29.70
2018-05-17T11:43:35.719Z,29.03
2018-05-17T11:46:03.863Z,28.40
2018-05-17T11:48:32.014Z,30.00
2018-05-17T11:51:00.135Z,25.83
2018-05-17T11:53:28.272Z,25.12
2018-05-17T11:55:56.421Z,25.73
2018-05-17T11:58:24.565Z,27.77
2018-05-17T12:00:52.693Z,28.93
2018-05-17T12:03:20.820Z,27.97
2018-05-17T12:05:48.947Z,25.10
2018-05-17T12:08:17.076Z,29.50
2018-05-17T12:10:46.216Z,27.17
2018-05-17T12:13:14.352Z,28.87
2018-05-17T12:15:42.670Z,27.67
2018-05-17T12:18:10.650Z,27.87
2018-05-17T12:20:38.770Z,27.30
2018-05-17T12:23:07.134Z,28.67
2018-05-17T12:25:35.153Z,34.30
2018-05-17T12:28:03.291Z,26.73
2018-05-17T12:30:31.452Z,26.43
2018-05-17T12:32:59.583Z,25.40
2018-05-17T12:35:27.743Z,27.07
2018-05-17T12:37:55.874Z,30.80
2018-05-17T12:40:24.012Z,33.07
2018-05-17T12:42:52.161Z,30.17
2018-05-17T12:45:20.301Z,30.10
2018-05-17T12:47:48.439Z,28.50
2018-05-17T12:50:16.577Z,23.83
2018-05-17T12:52:44.709Z,27.00
2018-05-17T12:55:12.868Z,28.63
2018-05-17T12:57:40.998Z,26.83
2018-05-17T13:00:09.130Z,27.30
2018-05-17T13:02:37.274Z,28.10
2018-05-17T13:05:07.164Z,24.10
2018-05-17T13:07:35.297Z,25.50
2018-05-17T13:10:03.425Z,26.70
2018-05-17T13:12:31.569Z,26.60
2018-05-17T13:14:59.735Z,28.20
2018-05-17T13:17:27.874Z,25.15
2018-05-17T13:19:56.002Z,28.37
2018-05-17T13:22:24.150Z,27.70
2018-05-17T13:24:52.329Z,26.80
2018-05-17T13:27:20.421Z,26.83
2018-05-17T13:29:48.577Z,24.97
2018-05-17T13:32:16.708Z,24.10
2018-05-17T13:34:44.852Z,24.27
2018-05-17T13:37:13.119Z,24.20
2018-05-17T13:39:41.200Z,30.30
2018-05-17T13:42:09.337Z,25.73
2018-05-17T13:44:37.478Z,23.70
2018-05-17T13:47:05.657Z,23.90
2018-05-17T13:49:33.784Z,26.53
2018-05-17T13:52:01.916Z,25.20
2018-05-17T13:54:30.048Z,26.00
2018-05-17T13:56:58.190Z,25.17
2018-05-17T13:59:26.333Z,26.83
2018-05-17T14:01:54.476Z,25.60
2018-05-17T14:04:22.610Z,27.60
2018-05-17T14:06:50.751Z,24.83
2018-05-17T14:09:18.896Z,25.92
2018-05-17T14:11:47.567Z,24.90
2018-05-17T14:14:15.719Z,26.03
2018-05-17T14:16:43.839Z,25.37
2018-05-17T14:19:12.034Z,26.83
2018-05-17T14:21:40.186Z,26.07
2018-05-17T14:24:09.158Z,23.58
2018-05-17T14:26:37.319Z,22.40
2018-05-17T14:29:05.476Z,22.93
2018-05-17T14:31:33.624Z,22.80
2018-05-17T14:34:01.746Z,21.27
2018-05-17T14:36:29.898Z,23.77
2018-05-17T14:38:58.045Z,64.10
2018-05-17T14:41:26.190Z,90.57
2018-05-17T14:43:54.325Z,62.20
2018-05-17T14:46:22.458Z,26.77
2018-05-17T14:48:50.595Z,31.00
2018-05-17T14:51:19.289Z,24.25
2018-05-17T14:53:47.439Z,23.57
2018-05-17T14:56:15.575Z,20.97
2018-05-17T14:58:44.033Z,19.63
2018-05-17T15:01:12.259Z,19.80
2018-05-17T15:03:40.351Z,19.07
2018-05-17T15:06:08.484Z,20.13
2018-05-17T15:08:36.636Z,22.33
2018-05-17T15:11:04.778Z,24.20
2018-05-17T15:13:32.935Z,20.30
2018-05-17T15:16:01.078Z,23.63
2018-05-17T15:18:29.203Z,20.93
2018-05-17T15:20:57.341Z,19.00
2018-05-17T15:23:25.491Z,19.00
2018-05-17T15:25:53.638Z,18.00
2018-05-17T15:28:21.815Z,17.57
2018-05-17T15:30:49.988Z,22.90
2018-05-17T15:33:18.164Z,19.98
2018-05-17T15:35:46.349Z,41.77
2018-05-17T15:38:14.489Z,17.63
2018-05-17T15:40:42.613Z,17.57
2018-05-17T15:43:10.758Z,17.83
2018-05-17T15:45:38.881Z,17.30
2018-05-17T15:48:07.081Z,20.37
2018-05-17T15:50:35.170Z,16.90
2018-05-17T15:53:03.370Z,17.42
2018-05-17T15:55:31.502Z,18.20
2018-05-17T15:57:59.655Z,16.37
2018-05-17T16:00:27.799Z,18.23
2018-05-17T16:02:55.937Z,18.97
2018-05-17T16:05:24.073Z,18.70
2018-05-17T16:07:52.209Z,19.40
2018-05-17T16:10:20.346Z,21.60
2018-05-17T16:12:48.497Z,19.70
2018-05-17T16:15:16.788Z,20.83
2018-05-17T16:17:44.811Z,24.63
2018-05-17T16:20:12.951Z,20.67
2018-05-17T16:22:41.099Z,24.03
2018-05-17T16:25:10.277Z,30.02
2018-05-17T16:27:38.417Z,25.17
2018-05-17T16:30:06.546Z,22.10
2018-05-17T16:32:34.701Z,26.37
2018-05-17T16:35:02.843Z,22.33
2018-05-17T16:37:30.987Z,23.90
2018-05-17T16:39:59.119Z,27.50
2018-05-17T16:42:27.249Z,27.53
2018-05-17T16:44:55.381Z,25.57
2018-05-17T16:47:23.556Z,28.00
2018-05-17T16:49:52.086Z,24.40
2018-05-17T16:52:20.248Z,27.27
2018-05-17T16:54:48.382Z,24.43
2018-05-17T16:57:16.534Z,23.90
2018-05-17T16:59:44.685Z,23.33
2018-05-17T17:02:12.819Z,24.30
2018-05-17T17:04:41.052Z,24.90
2018-05-17T17:07:09.100Z,22.10
2018-05-17T17:09:37.250Z,25.43
2018-05-17T17:12:05.374Z,39.00
2018-05-17T17:14:33.508Z,24.27
2018-05-17T17:17:01.654Z,24.75
2018-05-17T17:19:29.799Z,26.67
2018-05-17T17:21:57.925Z,32.07
2018-05-17T17:24:26.076Z,36.93
2018-05-17T17:26:54.213Z,22.40
2018-05-17T17:29:22.333Z,25.70
2018-05-17T17:31:50.476Z,29.47
2018-05-17T17:34:18.655Z,26.50
2018-05-17T17:36:46.754Z,25.33
2018-05-17T17:39:14.916Z,30.30
2018-05-17T17:41:43.094Z,24.00
2018-05-17T17:44:11.255Z,28.53
2018-05-17T17:46:39.404Z,26.70
2018-05-17T17:49:07.563Z,28.13
2018-05-17T17:51:35.686Z,28.10
2018-05-17T17:54:03.841Z,28.60
2018-05-17T17:56:31.969Z,32.70
2018-05-17T17:59:00.100Z,32.10
2018-05-17T18:01:28.240Z,29.20
2018-05-17T18:03:56.390Z,27.43
2018-05-17T18:06:24.824Z,28.87
2018-05-17T18:08:52.965Z,32.50
2018-05-17T18:11:21.260Z,29.27
2018-05-17T18:13:49.395Z,29.23
2018-05-17T18:16:17.535Z,27.83
2018-05-17T18:18:46.549Z,27.70
2018-05-17T18:21:14.718Z,28.75
2018-05-17T18:23:42.854Z,26.70
2018-05-17T18:26:11.092Z,27.48
2018-05-17T18:28:39.172Z,31.87
2018-05-17T18:31:07.358Z,33.53
2018-05-17T18:33:35.511Z,29.77
2018-05-17T18:36:03.667Z,29.55
2018-05-17T18:38:32.555Z,25.77
2018-05-17T18:41:00.683Z,29.90
2018-05-17T18:43:28.819Z,31.43
2018-05-17T18:45:56.958Z,31.03
2018-05-17T18:48:25.094Z,31.23
2018-05-17T18:50:53.248Z,34.87
2018-05-17T18:53:21.407Z,35.97
2018-05-17T18:55:49.759Z,29.23
2018-05-17T18:58:17.847Z,26.43
2018-05-17T19:00:46.156Z,25.00
2018-05-17T19:03:14.309Z,21.03
2018-05-17T19:05:42.459Z,22.87
2018-05-17T19:08:10.616Z,21.83
2018-05-17T19:10:38.774Z,26.67
2018-05-17T19:13:06.961Z,28.33
2018-05-17T19:15:35.099Z,35.90
2018-05-17T19:18:03.244Z,34.95
2018-05-17T19:20:31.459Z,28.40
2018-05-17T19:22:59.547Z,31.40
2018-05-17T19:25:27.852Z,30.27
2018-05-17T19:27:56.024Z,33.97
2018-05-17T19:30:24.174Z,29.07
2018-05-17T19:32:52.468Z,31.50
2018-05-17T19:35:20.604Z,29.02
2018-05-17T19:37:48.737Z,29.50
2018-05-17T19:40:16.871Z,32.70
2018-05-17T19:42:45.028Z,36.13
2018-05-17T19:45:14.025Z,41.70
2018-05-17T19:47:42.175Z,39.67
2018-05-17T19:50:10.297Z,35.20
2018-05-17T19:52:38.426Z,34.37
2018-05-17T19:55:06.674Z,36.97
2018-05-17T19:57:34.807Z,35.60
2018-05-17T20:00:02.969Z,37.00
2018-05-17T20:02:31.135Z,43.37
2018-05-17T20:04:59.352Z,40.77
2018-05-17T20:07:27.440Z,39.53
2018-05-17T20:09:55.575Z,28.30
2018-05-17T20:12:23.716Z,31.17
2018-05-17T20:14:51.852Z,31.13
2018-05-17T20:17:20.018Z,32.38
2018-05-17T20:19:48.158Z,31.87
2018-05-17T20:22:16.297Z,30.30
2018-05-17T20:24:44.450Z,27.40
2018-05-17T20:27:12.606Z,20.67
2018-05-17T20:29:40.779Z,23.90
2018-05-17T20:32:08.916Z,18.63
2018-05-17T20:34:37.066Z,20.40
2018-05-17T20:37:05.216Z,17.70
2018-05-17T20:39:33.369Z,19.27
2018-05-17T20:42:01.523Z,16.43
2018-05-17T20:44:29.695Z,18.17
2018-05-17T20:46:57.829Z,17.27
2018-05-17T20:49:25.971Z,18.30
2018-05-17T20:51:54.305Z,17.00
2018-05-17T20:54:22.454Z,18.10
2018-05-17T20:56:50.600Z,21.30
2018-05-17T20:59:18.734Z,18.40
2018-05-17T21:01:46.889Z,17.83
2018-05-17T21:04:15.047Z,18.50
2018-05-17T21:06:43.183Z,18.70
2018-05-17T21:09:11.337Z,19.50
2018-05-17T21:11:39.475Z,22.63
2018-05-17T21:14:07.615Z,16.63
2018-05-17T21:16:35.749Z,17.17
2018-05-17T21:19:03.903Z,19.83
2018-05-17T21:21:32.044Z,16.97
2018-05-17T21:24:00.200Z,17.63
2018-05-17T21:26:28.360Z,20.50
2018-05-17T21:28:56.501Z,18.60
2018-05-17T21:31:24.659Z,20.85
2018-05-17T21:33:52.808Z,23.00
2018-05-17T21:36:20.937Z,17.20
2018-05-17T21:38:49.085Z,18.80
2018-05-17T21:41:17.228Z,22.60
2018-05-17T21:43:45.372Z,19.75
2018-05-17T21:46:13.520Z,19.37
2018-05-17T21:48:41.659Z,19.40
2018-05-17T21:51:10.075Z,22.93
2018-05-17T21:53:38.215Z,18.93
2018-05-17T21:56:06.352Z,20.90
2018-05-17T21:58:34.500Z,19.12
2018-05-17T22:01:02.785Z,19.67
2018-05-17T22:03:31.038Z,19.40
2018-05-17T22:05:59.155Z,21.60
2018-05-17T22:08:27.310Z,20.60
2018-05-17T22:10:55.451Z,23.85
2018-05-17T22:13:23.587Z,21.35
2018-05-17T22:15:51.737Z,23.02
2018-05-17T22:18:19.855Z,22.57
2018-05-17T22:20:48.002Z,28.63
2018-05-17T22:23:16.160Z,26.80
2018-05-17T22:25:44.286Z,26.53
2018-05-17T22:28:13.734Z,28.33
2018-05-17T22:30:41.878Z,23.37
2018-05-17T22:33:10.255Z,30.93
2018-05-17T22:35:38.853Z,25.30
2018-05-17T22:38:07.032Z,28.07
2018-05-17T22:40:35.158Z,26.67
2018-05-17T22:43:03.294Z,28.60
2018-05-17T22:45:31.448Z,29.03
2018-05-17T22:47:59.578Z,29.10
2018-05-17T22:50:27.722Z,33.47
2018-05-17T22:52:55.857Z,24.30
2018-05-17T22:55:23.987Z,25.52
2018-05-17T22:58:03.917Z,31.37
2018-05-17T23:00:32.043Z,24.33
2018-05-17T23:03:00.179Z,29.10
2018-05-17T23:05:28.325Z,29.05
2018-05-17T23:07:56.459Z,29.00
2018-05-17T23:10:24.606Z,27.53
2018-05-17T23:12:52.771Z,27.80
2018-05-17T23:15:20.907Z,28.27
2018-05-17T23:17:49.052Z,32.53
2018-05-17T23:20:17.194Z,29.40
2018-05-17T23:22:45.343Z,28.70
2018-05-17T23:25:13.479Z,31.20
2018-05-17T23:27:41.616Z,29.80
2018-05-17T23:30:09.763Z,31.97
2018-05-17T23:32:37.886Z,33.30
2018-05-17T23:35:06.115Z,36.07
2018-05-17T23:37:34.237Z,33.20
2018-05-17T23:43:05.033Z,37.77
2018-05-17T23:45:33.162Z,34.50
2018-05-17T23:48:01.318Z,40.40
2018-05-17T23:50:29.467Z,54.40
2018-05-17T23:52:57.627Z,43.33
2018-05-17T23:55:25.765Z,40.50
2018-05-17T23:57:54.707Z,50.90
